Terminal Aerodrome Forecast
Issued by NWS

Home | Current Version | Previous Version | Text Only | Print | Product List | Glossary Off
Versions: 1 2 3 4 5 6 7 8 9 10 11 12 13 14 15

868
FTUS43 KMPX 281434 AAA
TAFRWF
TAF AMD
KRWF 281434Z 2815/2912 02005KT P6SM OVC005
     FM281800 03007KT P6SM SCT025 OVC150
     FM290200 VRB03KT P6SM SCT150=

USA.gov is the U.S. government's official web portal to all federal, state and local government web resources and services.